Time;durP1;ratioP1;P1;durP2;ratioP2;P2;SDS_P1;SDS_P2;PMS_P1;PMS_P2;Temp;Humidity;BMP_temperature;BMP_pressure;BME280_temperature;BME280_humidity;BME280_pressure;Samples;Min_cycle;Max_cycle;Signal;HPM_P1;HPM_P2
2021/05/16 00:00:35;;;;;;;;;;;;;;;12.31;68.50;98872.28;5015416;28;19929;-66
2021/05/16 00:03:02;;;;;;;;;;;;;;;12.28;68.21;98873.00;5015753;28;19921;-67
2021/05/16 00:05:31;;;;;;;;;;;;;;;12.32;68.03;98868.31;5015305;28;20264;-67
2021/05/16 00:07:58;;;;;;;;;;;;;;;12.24;68.27;98861.78;5015593;28;19921;-66
2021/05/16 00:10:25;;;;;;;;;;;;;;;12.21;68.15;98865.28;5015163;28;19929;-66
2021/05/16 00:12:52;;;;;;;;;;;;;;;12.12;68.54;98867.50;5015760;28;19937;-67
2021/05/16 00:15:19;;;;;;;;;;;;;;;12.01;68.68;98864.47;5015653;28;19922;-66
2021/05/16 00:17:47;;;;;;;;;;;;;;;11.93;68.76;98862.66;5015467;28;19922;-66
2021/05/16 00:20:15;;;;;;;;;;;;;;;11.89;69.09;98867.34;5015661;28;20267;-67
2021/05/16 00:22:42;;;;;;;;;;;;;;;11.82;69.53;98867.13;5015475;28;19929;-67
2021/05/16 00:25:10;;;;;;;;;;;;;;;11.81;69.22;98871.13;4993086;28;640814;-67
2021/05/16 00:27:37;;;;;;;;;;;;;;;11.79;69.38;98861.13;5016816;28;19927;-66
2021/05/16 00:30:04;;;;;;;;;;;;;;;11.81;69.10;98857.16;5016448;28;19928;-66
2021/05/16 00:32:31;;;;;;;;;;;;;;;11.77;69.35;98860.66;5016380;28;19921;-67
2021/05/16 00:34:58;;;;;;;;;;;;;;;11.77;69.58;98860.66;5016733;28;19929;-67
2021/05/16 00:37:24;;;;;;;;;;;;;;;11.78;69.39;98855.91;5016237;28;19928;-66
2021/05/16 00:39:51;;;;;;;;;;;;;;;11.77;69.46;98855.09;5026531;28;19921;-66
2021/05/16 00:42:17;;;;;;;;;;;;;;;11.83;68.99;98860.41;5022681;28;19921;-66
2021/05/16 00:44:56;;;;;;;;;;;;;;;11.88;68.97;98863.72;5016637;28;19921;-66
2021/05/16 00:47:23;;;;;;;;;;;;;;;11.89;68.71;98857.00;5016483;28;19930;-66
2021/05/16 00:49:49;;;;;;;;;;;;;;;11.93;68.84;98863.47;5016118;28;20379;-66
2021/05/16 00:52:17;;;;;;;;;;;;;;;11.90;68.48;98866.16;5015660;28;19928;-66
2021/05/16 00:54:43;;;;;;;;;;;;;;;11.95;68.43;98865.91;5016092;28;19922;-67
2021/05/16 00:57:10;;;;;;;;;;;;;;;11.94;68.16;98870.66;5016194;28;19925;-66
2021/05/16 00:59:37;;;;;;;;;;;;;;;11.96;67.93;98862.72;5016352;28;19936;-66
2021/05/16 01:02:04;;;;;;;;;;;;;;;11.92;67.70;98859.03;5016109;28;19928;-66
2021/05/16 01:04:30;;;;;;;;;;;;;;;11.92;67.53;98852.66;5016002;28;19933;-67
2021/05/16 01:06:57;;;;;;;;;;;;;;;11.76;67.87;98852.69;5015642;28;19928;-66
2021/05/16 01:09:24;;;;;;;;;;;;;;;11.80;68.23;98859.16;5016009;28;19921;-66
2021/05/16 01:11:51;;;;;;;;;;;;;;;11.72;68.13;98855.38;5015514;28;19921;-66
2021/05/16 01:14:23;;;;;;;;;;;;;;;11.63;68.45;98856.72;5015792;28;19922;-66
2021/05/16 01:16:50;;;;;;;;;;;;;;;11.58;68.50;98857.81;5015988;28;19925;-66
2021/05/16 01:19:19;;;;;;;;;;;;;;;11.58;67.62;98863.38;5015420;28;19929;-67
2021/05/16 01:21:46;;;;;;;;;;;;;;;11.58;67.77;98857.81;5015053;28;19921;-67
2021/05/16 01:24:15;;;;;;;;;;;;;;;11.60;67.30;98865.81;5014828;28;19922;-66
2021/05/16 01:26:43;;;;;;;;;;;;;;;11.64;67.35;98864.75;5015984;28;19922;-67
2021/05/16 01:29:09;;;;;;;;;;;;;;;11.66;67.42;98867.97;5015376;28;19921;-67
2021/05/16 01:31:36;;;;;;;;;;;;;;;11.66;67.57;98867.19;5015245;28;19921;-67
2021/05/16 01:34:02;;;;;;;;;;;;;;;11.73;67.17;98861.75;5015317;28;19929;-67
2021/05/16 01:36:29;;;;;;;;;;;;;;;11.74;66.85;98860.59;5015570;28;19922;-67
2021/05/16 01:38:56;;;;;;;;;;;;;;;11.72;66.90;98863.75;5014985;28;19921;-67
2021/05/16 01:41:23;;;;;;;;;;;;;;;11.65;67.41;98857.97;5015194;28;19922;-67
2021/05/16 01:43:52;;;;;;;;;;;;;;;11.69;67.38;98867.25;5015229;28;19932;-67
2021/05/16 01:46:19;;;;;;;;;;;;;;;11.65;67.35;98862.75;5014851;28;19929;-67
2021/05/16 01:48:46;;;;;;;;;;;;;;;11.71;67.32;98870.47;5015273;28;20034;-67
2021/05/16 01:51:12;;;;;;;;;;;;;;;11.74;67.03;98866.97;5015275;28;19921;-67
2021/05/16 01:53:40;;;;;;;;;;;;;;;11.81;67.02;98866.34;5014861;28;20394;-67
2021/05/16 01:56:08;;;;;;;;;;;;;;;11.92;66.79;98870.22;5014976;28;19921;-67
2021/05/16 01:58:35;;;;;;;;;;;;;;;11.92;66.49;98867.41;5014603;28;19929;-67
2021/05/16 02:01:02;;;;;;;;;;;;;;;11.97;66.40;98869.94;5014645;28;19929;-67
2021/05/16 02:03:29;;;;;;;;;;;;;;;12.06;65.90;98869.75;5014413;28;19922;-67
2021/05/16 02:05:56;;;;;;;;;;;;;;;12.07;65.79;98865.75;5015078;28;19922;-67
2021/05/16 02:08:23;;;;;;;;;;;;;;;12.04;65.62;98869.28;5014416;28;19926;-67
2021/05/16 02:10:49;;;;;;;;;;;;;;;12.01;65.40;98867.25;5014669;28;19921;-67
2021/05/16 02:13:17;;;;;;;;;;;;;;;12.04;65.52;98863.72;5015154;28;19928;-67
2021/05/16 02:15:44;;;;;;;;;;;;;;;11.99;65.12;98872.38;5013845;28;19932;-67
2021/05/16 02:18:14;;;;;;;;;;;;;;;11.99;65.14;98872.38;5014993;28;19925;-67
2021/05/16 02:20:41;;;;;;;;;;;;;;;11.92;65.37;98878.56;5014182;28;19921;-67
2021/05/16 02:23:07;;;;;;;;;;;;;;;11.90;65.05;98872.56;5014617;28;19922;-67
2021/05/16 02:25:35;;;;;;;;;;;;;;;11.82;65.16;98862.38;4995174;28;19922;-68
2021/05/16 02:28:01;;;;;;;;;;;;;;;11.73;65.47;98862.56;4995168;28;20271;-68
2021/05/16 02:30:29;;;;;;;;;;;;;;;11.67;65.46;98866.78;4995127;28;19921;-67
2021/05/16 02:32:55;;;;;;;;;;;;;;;11.55;65.96;98864.94;4994552;28;19922;-67
2021/05/16 02:35:22;;;;;;;;;;;;;;;11.49;65.64;98869.16;5011525;28;19921;-67
2021/05/16 02:37:51;;;;;;;;;;;;;;;11.41;65.97;98864.56;5014381;28;19921;-67
2021/05/16 02:40:17;;;;;;;;;;;;;;;11.37;66.03;98870.03;5014328;28;19928;-67
2021/05/16 02:42:44;;;;;;;;;;;;;;;11.29;66.18;98871.03;5014598;28;19925;-67
2021/05/16 02:45:11;;;;;;;;;;;;;;;11.29;66.06;98871.03;5013215;28;19933;-67
2021/05/16 02:47:39;;;;;;;;;;;;;;;11.26;66.03;98871.75;5003222;28;20381;-67
2021/05/16 02:50:06;;;;;;;;;;;;;;;11.25;66.23;98872.09;5010779;28;19929;-67
2021/05/16 02:52:32;;;;;;;;;;;;;;;11.20;66.53;98875.97;5013845;28;19921;-67
2021/05/16 02:54:59;;;;;;;;;;;;;;;11.12;66.70;98874.16;5012922;28;19922;-67
2021/05/16 02:57:25;;;;;;;;;;;;;;;11.05;66.62;98879.56;5013647;28;19925;-67
2021/05/16 02:59:52;;;;;;;;;;;;;;;11.07;66.78;98878.03;5014118;28;19928;-67
2021/05/16 03:02:18;;;;;;;;;;;;;;;11.01;66.83;98873.06;5013950;28;20286;-67
2021/05/16 03:04:46;;;;;;;;;;;;;;;10.93;67.20;98877.63;5013557;28;19928;-68
2021/05/16 03:07:13;;;;;;;;;;;;;;;10.90;67.27;98879.16;5013935;28;19921;-67
2021/05/16 03:09:40;;;;;;;;;;;;;;;10.79;67.46;98871.66;5013282;28;19928;-67
2021/05/16 03:12:07;;;;;;;;;;;;;;;10.83;67.50;98867.00;5013857;28;19944;-67
2021/05/16 03:14:34;;;;;;;;;;;;;;;10.90;66.95;98872.78;5013340;28;19922;-67
2021/05/16 03:17:01;;;;;;;;;;;;;;;10.95;67.00;98876.09;5013745;28;19929;-67
2021/05/16 03:19:27;;;;;;;;;;;;;;;10.90;67.19;98870.81;5013995;28;19921;-67
2021/05/16 03:21:55;;;;;;;;;;;;;;;10.88;67.39;98881.50;5013432;28;19921;-67
2021/05/16 03:24:21;;;;;;;;;;;;;;;10.92;67.14;98873.25;5012866;28;19932;-67
2021/05/16 03:26:50;;;;;;;;;;;;;;;10.95;67.17;98873.31;5013362;28;19921;-67
2021/05/16 03:29:17;;;;;;;;;;;;;;;11.01;66.93;98881.44;5012580;28;20366;-67
2021/05/16 03:31:43;;;;;;;;;;;;;;;11.06;66.81;98883.94;5013709;28;20410;-67
2021/05/16 03:34:10;;;;;;;;;;;;;;;11.06;66.86;98879.19;5013205;28;19937;-67
2021/05/16 03:36:37;;;;;;;;;;;;;;;11.02;67.11;98880.25;5012949;28;19921;-67
2021/05/16 03:39:05;;;;;;;;;;;;;;;11.04;66.91;98877.91;5013614;28;19921;-67
2021/05/16 03:41:31;;;;;;;;;;;;;;;11.01;67.11;98873.06;5013942;28;19925;-67
2021/05/16 03:44:01;;;;;;;;;;;;;;;11.01;67.32;98873.88;5013419;28;19921;-67
2021/05/16 03:46:27;;;;;;;;;;;;;;;11.03;67.31;98879.09;5013640;28;20286;-67
2021/05/16 03:48:53;;;;;;;;;;;;;;;11.03;67.46;98865.97;5013560;28;20302;-67
2021/05/16 03:51:20;;;;;;;;;;;;;;;11.08;67.13;98867.69;5012950;28;19921;-67
2021/05/16 03:53:46;;;;;;;;;;;;;;;11.04;67.29;98869.56;5013240;28;19928;-67
2021/05/16 03:56:14;;;;;;;;;;;;;;;11.05;67.28;98865.63;5013501;28;19922;-67
2021/05/16 03:58:40;;;;;;;;;;;;;;;11.03;67.38;98868.75;5012882;28;19928;-67
2021/05/16 04:01:07;;;;;;;;;;;;;;;11.11;67.29;98878.13;5013052;28;19921;-67
2021/05/16 04:03:36;;;;;;;;;;;;;;;11.08;67.13;98868.50;5012943;28;19928;-67
2021/05/16 04:06:02;;;;;;;;;;;;;;;11.11;66.97;98876.16;5013104;28;19921;-67
2021/05/16 04:08:29;;;;;;;;;;;;;;;11.17;66.90;98871.94;5013164;28;19928;-67
2021/05/16 04:10:55;;;;;;;;;;;;;;;11.21;66.83;98876.78;5012920;28;19921;-67
2021/05/16 04:13:24;;;;;;;;;;;;;;;11.13;66.58;98879.38;5012788;28;19929;-67
2021/05/16 04:15:53;;;;;;;;;;;;;;;11.04;67.26;98873.16;5013104;28;19922;-67
2021/05/16 04:18:19;;;;;;;;;;;;;;;11.00;67.21;98880.59;5013247;28;19944;-67
2021/05/16 04:20:46;;;;;;;;;;;;;;;10.99;67.30;98886.56;5012968;28;19929;-67
2021/05/16 04:23:12;;;;;;;;;;;;;;;10.81;68.03;98881.28;5013074;28;19940;-67
2021/05/16 04:25:39;;;;;;;;;;;;;;;10.89;67.92;98882.28;5012378;28;19921;-67
2021/05/16 04:28:05;;;;;;;;;;;;;;;10.93;67.70;98877.63;5013477;28;19921;-67
2021/05/16 04:30:35;;;;;;;;;;;;;;;10.90;67.87;98879.16;5012505;28;19928;-67
2021/05/16 04:33:02;;;;;;;;;;;;;;;10.97;67.50;98878.53;5012517;28;20291;-67
2021/05/16 04:35:28;;;;;;;;;;;;;;;10.92;67.76;98882.41;5012482;28;19921;-67
2021/05/16 04:37:57;;;;;;;;;;;;;;;10.97;67.76;98881.31;5012874;28;19921;-67
2021/05/16 04:40:24;;;;;;;;;;;;;;;11.03;67.45;98882.69;5015422;28;19921;-67
2021/05/16 04:42:50;;;;;;;;;;;;;;;11.03;67.55;98884.66;5016677;28;19921;-67
2021/05/16 04:45:17;;;;;;;;;;;;;;;11.06;67.37;98889.53;5016100;28;19925;-67
2021/05/16 04:47:49;;;;;;;;;;;;;;;11.05;67.42;98883.16;5016200;28;19926;-67
2021/05/16 04:50:18;;;;;;;;;;;;;;;11.12;67.20;98899.25;5015929;28;19921;-67
2021/05/16 04:52:44;;;;;;;;;;;;;;;11.16;67.14;98897.34;5016133;28;19928;-67
2021/05/16 04:55:11;;;;;;;;;;;;;;;11.16;67.08;98891.78;5015476;28;20286;-67
2021/05/16 04:57:40;;;;;;;;;;;;;;;11.22;66.78;98900.72;5015793;28;19928;-68
2021/05/16 05:00:08;;;;;;;;;;;;;;;11.30;66.66;98897.75;5015449;28;19921;-67
2021/05/16 05:02:35;;;;;;;;;;;;;;;11.35;66.52;98888.31;5015876;28;19922;-67
2021/05/16 05:05:05;;;;;;;;;;;;;;;11.43;66.25;98906.03;5015521;28;19925;-67
2021/05/16 05:07:32;;;;;;;;;;;;;;;11.48;66.16;98897.38;5016068;28;19925;-67
2021/05/16 05:09:58;;;;;;;;;;;;;;;11.55;66.20;98903.16;5015895;28;19921;-67
2021/05/16 05:12:25;;;;;;;;;;;;;;;11.63;65.99;98899.34;5015587;28;19921;-67
2021/05/16 05:14:51;;;;;;;;;;;;;;;11.65;65.85;98890.63;5015257;28;19921;-68
2021/05/16 05:17:18;;;;;;;;;;;;;;;11.73;65.98;98893.25;5015479;28;20301;-67
2021/05/16 05:19:44;;;;;;;;;;;;;;;11.82;65.50;98900.63;5015548;28;19928;-67
2021/05/16 05:22:12;;;;;;;;;;;;;;;11.89;65.10;98901.63;5015748;28;20113;-67
2021/05/16 05:24:41;;;;;;;;;;;;;;;11.97;64.60;98900.63;5015061;28;20370;-67
2021/05/16 05:27:07;;;;;;;;;;;;;;;11.98;63.68;98907.03;5015079;28;19928;-67
2021/05/16 05:29:34;;;;;;;;;;;;;;;12.06;63.94;98910.81;5015640;28;19921;-67
2021/05/16 05:32:00;;;;;;;;;;;;;;;12.13;63.56;98908.97;5014878;28;19922;-67
2021/05/16 05:34:27;;;;;;;;;;;;;;;12.16;63.23;98911.03;5014498;28;19921;-67
2021/05/16 05:36:54;;;;;;;;;;;;;;;12.24;63.02;98909.25;5015229;28;19928;-67
2021/05/16 05:39:24;;;;;;;;;;;;;;;12.28;62.96;98903.72;5014770;28;19928;-67
2021/05/16 05:41:50;;;;;;;;;;;;;;;12.46;62.80;98918.88;5014618;28;19921;-67
2021/05/16 05:44:17;;;;;;;;;;;;;;;12.51;62.64;98909.41;5015096;28;20374;-66
2021/05/16 05:46:43;;;;;;;;;;;;;;;12.65;62.19;98915.31;5015007;28;19928;-68
2021/05/16 05:49:10;;;;;;;;;;;;;;;12.70;61.70;98905.81;5015229;28;19928;-67
2021/05/16 05:51:36;;;;;;;;;;;;;;;12.73;61.33;98897.53;5013670;28;19927;-66
2021/05/16 05:54:03;;;;;;;;;;;;;;;12.87;61.18;98890.59;5014566;28;19921;-66
2021/05/16 05:56:30;;;;;;;;;;;;;;;12.98;60.76;98892.44;5014969;28;20401;-66
2021/05/16 05:58:57;;;;;;;;;;;;;;;13.07;60.07;98894.19;5014416;28;19922;-66
2021/05/16 06:01:23;;;;;;;;;;;;;;;13.10;59.87;98899.84;5014296;28;20374;-66
2021/05/16 06:03:50;;;;;;;;;;;;;;;13.12;60.00;98900.31;5014670;28;19921;-66
2021/05/16 06:06:17;;;;;;;;;;;;;;;13.25;59.52;98909.31;5014818;28;20293;-67
2021/05/16 06:08:43;;;;;;;;;;;;;;;13.28;58.67;98905.78;5014288;28;19921;-66
2021/05/16 06:11:10;;;;;;;;;;;;;;;13.35;58.12;98919.91;5014475;28;20298;-66
2021/05/16 06:13:42;;;;;;;;;;;;;;;13.52;57.85;98915.84;5014027;28;19929;-66
2021/05/16 06:16:09;;;;;;;;;;;;;;;13.77;57.08;98905.09;5014250;28;19945;-66
2021/05/16 06:18:36;;;;;;;;;;;;;;;14.17;56.44;98903.72;5014736;28;19958;-66
2021/05/16 06:21:02;;;;;;;;;;;;;;;14.50;55.31;98909.75;5014819;28;19925;-66
2021/05/16 06:23:35;;;;;;;;;;;;;;;14.59;54.98;98897.13;5014530;28;19936;-67
2021/05/16 06:26:02;;;;;;;;;;;;;;;14.64;54.85;98895.16;5014277;28;19932;-67
2021/05/16 06:28:28;;;;;;;;;;;;;;;14.90;53.82;98900.69;5014313;28;19922;-68
2021/05/16 06:30:56;;;;;;;;;;;;;;;15.00;53.37;98893.59;5014781;28;19944;-67
2021/05/16 06:33:22;;;;;;;;;;;;;;;15.08;52.61;98902.91;5013767;28;19926;-67
2021/05/16 06:35:49;;;;;;;;;;;;;;;15.32;52.06;98905.16;5014399;28;19993;-67
2021/05/16 06:38:16;;;;;;;;;;;;;;;15.41;51.20;98902.88;5013997;28;19921;-67
2021/05/16 06:40:45;;;;;;;;;;;;;;;15.58;51.67;98906.22;5014195;28;19929;-67
2021/05/16 06:43:13;;;;;;;;;;;;;;;15.57;50.52;98901.81;5014147;28;20294;-67
2021/05/16 06:45:40;;;;;;;;;;;;;;;15.72;50.53;98906.38;5013634;28;19921;-67
2021/05/16 06:48:07;;;;;;;;;;;;;;;15.80;49.94;98902.44;5014700;28;19929;-67
2021/05/16 06:50:34;;;;;;;;;;;;;;;16.24;48.95;98904.38;5013575;28;19921;-67
2021/05/16 06:53:00;;;;;;;;;;;;;;;16.67;47.79;98901.00;5013619;28;20358;-67
2021/05/16 06:55:31;;;;;;;;;;;;;;;16.81;47.40;98903.09;5013190;28;19928;-67
2021/05/16 06:57:57;;;;;;;;;;;;;;;16.72;47.36;98905.44;5013358;28;19927;-67
2021/05/16 07:00:24;;;;;;;;;;;;;;;16.82;46.61;98907.53;5013735;28;19921;-67
2021/05/16 07:02:51;;;;;;;;;;;;;;;17.12;46.25;98896.00;5013394;28;19921;-67
2021/05/16 07:05:18;;;;;;;;;;;;;;;17.11;45.32;98908.44;5014156;28;19921;-67
2021/05/16 07:07:44;;;;;;;;;;;;;;;16.91;45.69;98907.16;5013634;28;19921;-67
2021/05/16 07:10:11;;;;;;;;;;;;;;;17.00;45.84;98910.41;5013349;28;19921;-67
2021/05/16 07:12:38;;;;;;;;;;;;;;;16.92;45.84;98905.97;5014024;28;19944;-67
2021/05/16 07:15:05;;;;;;;;;;;;;;;16.83;45.85;98909.13;5013606;28;20371;-67
2021/05/16 07:17:32;;;;;;;;;;;;;;;16.47;46.82;98913.75;5013597;28;19928;-67
2021/05/16 07:19:58;;;;;;;;;;;;;;;16.39;47.21;98910.09;5010310;28;19940;-67
2021/05/16 07:22:25;;;;;;;;;;;;;;;16.13;47.78;98930.78;5012396;28;19921;-67
2021/05/16 07:24:52;;;;;;;;;;;;;;;16.05;47.99;98915.88;5012493;28;19929;-67
2021/05/16 07:27:18;;;;;;;;;;;;;;;15.92;48.79;98917.38;5013416;28;19922;-66
2021/05/16 07:29:45;;;;;;;;;;;;;;;15.99;49.21;98925.84;5012987;28;19921;-67
2021/05/16 07:32:14;;;;;;;;;;;;;;;15.76;49.90;98924.06;5013003;28;20294;-67
2021/05/16 07:34:40;;;;;;;;;;;;;;;15.78;50.83;98937.72;5012006;28;19922;-67
2021/05/16 07:37:47;;;;;;;;;;;;;;;15.46;56.31;98938.19;5094818;27;19923;-67
2021/05/16 07:40:14;;;;;;;;;;;;;;;15.12;55.91;98937.38;5101862;27;19928;-67
2021/05/16 07:42:40;;;;;;;;;;;;;;;14.70;58.80;98946.88;5090508;28;19924;-67
2021/05/16 07:45:10;;;;;;;;;;;;;;;14.55;58.17;98949.50;5090553;28;19925;-67
2021/05/16 07:47:38;;;;;;;;;;;;;;;14.30;58.43;98945.47;5090924;28;19924;-67
2021/05/16 07:54:44;;;;;;;18.70;5.22;;;;;;;13.50;63.57;98953.72;5149323;27;20532;-50
2021/05/16 07:57:11;;;;;;;11.70;3.97;;;;;;;13.18;65.13;98965.88;5127197;27;20055;-48
2021/05/16 07:59:38;;;;;;;10.93;3.70;;;;;;;12.97;66.80;98954.28;5122471;27;20078;-46
2021/05/16 08:02:06;;;;;;;13.93;3.20;;;;;;;12.80;66.42;98966.69;5113751;27;20412;-67
2021/05/16 08:04:34;;;;;;;13.93;3.38;;;;;;;12.91;67.46;98964.94;5121423;28;20055;-67
2021/05/16 08:07:02;;;;;;;11.75;3.53;;;;;;;12.72;66.85;98965.72;5102134;28;20052;-66
2021/05/16 08:09:29;;;;;;;9.55;2.60;;;;;;;12.81;66.56;98957.16;5120456;28;20062;-66
2021/05/16 08:11:57;;;;;;;10.82;3.42;;;;;;;12.95;66.41;98965.03;5102528;28;20047;-65
2021/05/16 08:14:24;;;;;;;13.10;3.20;;;;;;;13.05;63.90;98963.63;5109139;28;20051;-65
2021/05/16 08:16:51;;;;;;;7.30;2.75;;;;;;;13.40;64.07;98972.75;5100829;28;20044;-65
2021/05/16 08:19:17;;;;;;;6.55;2.67;;;;;;;13.50;63.94;98970.53;5089536;28;20059;-65
2021/05/16 08:21:45;;;;;;;9.48;2.38;;;;;;;13.75;63.41;98969.00;5115423;28;20058;-66
2021/05/16 08:24:14;;;;;;;10.85;2.58;;;;;;;13.87;63.25;98982.00;5116059;28;20436;-66
2021/05/16 08:26:42;;;;;;;7.20;2.70;;;;;;;13.78;62.29;98971.03;5090245;28;20063;-66
2021/05/16 08:29:10;;;;;;;10.65;2.67;;;;;;;13.72;63.46;98971.72;5093001;28;20349;-66
2021/05/16 08:31:37;;;;;;;7.90;2.42;;;;;;;13.81;60.93;98975.09;5114977;27;20060;-66
2021/05/16 08:34:04;;;;;;;9.45;2.40;;;;;;;13.87;61.74;98978.38;5107908;28;20399;-67
2021/05/16 08:36:33;;;;;;;9.63;2.80;;;;;;;13.93;62.53;98971.28;5110231;28;20158;-66
2021/05/16 08:39:00;;;;;;;8.48;2.63;;;;;;;13.89;60.37;98976.03;5096998;28;20044;-66
2021/05/16 08:41:27;;;;;;;6.53;2.70;;;;;;;14.02;62.92;98977.44;5107063;28;20051;-66
2021/05/16 08:43:54;;;;;;;7.07;2.20;;;;;;;14.12;60.11;98979.63;5100831;28;20045;-66
2021/05/16 08:46:22;;;;;;;8.27;2.30;;;;;;;13.98;60.70;98973.78;5094757;28;20055;-67
2021/05/16 08:48:49;;;;;;;8.20;2.35;;;;;;;14.32;59.92;98976.72;5096734;28;21602;-66
2021/05/16 08:51:16;;;;;;;6.40;2.17;;;;;;;14.88;57.06;98973.16;5087138;28;20055;-67
2021/05/16 08:53:46;;;;;;;5.10;1.92;;;;;;;15.52;55.52;98970.31;5083261;28;20056;-66
2021/05/16 08:56:13;;;;;;;5.82;2.00;;;;;;;15.77;54.91;98965.00;5082976;28;20076;-66
2021/05/16 08:58:40;;;;;;;6.80;2.17;;;;;;;15.85;53.53;98962.22;5085862;28;20055;-65
2021/05/16 09:01:38;;;;;;;9.05;2.13;;;;;;;16.27;53.21;98963.78;5083898;28;20055;-65
2021/05/16 09:04:20;;;;;;;6.88;2.08;;;;;;;16.90;51.45;98951.34;5079975;28;20040;-64
2021/05/16 09:06:52;;;;;;;5.88;2.00;;;;;;;18.22;47.17;98950.84;5067106;28;20048;-66
2021/05/16 09:09:26;;;;;;;6.60;2.58;;;;;;;19.14;46.03;98958.72;5064657;28;20048;-66
2021/05/16 09:11:57;;;;;;;7.95;2.05;;;;;;;19.59;43.83;98956.06;5062886;28;20048;-66
2021/05/16 09:14:50;;;;;;;8.40;2.40;;;;;;;20.03;41.33;98954.56;5069157;28;20052;-66
2021/05/16 09:17:26;;;;;;;8.95;2.67;;;;;;;20.60;41.93;98945.63;5066828;28;20052;-67
2021/05/16 09:19:54;;;;;;;5.53;1.70;;;;;;;20.15;42.02;98941.97;5066462;28;20142;-66
2021/05/16 09:22:39;;;;;;;7.55;2.05;;;;;;;19.25;42.14;98959.47;5071725;28;20052;-67
2021/05/16 09:25:17;;;;;;;7.38;2.40;;;;;;;18.73;44.42;98950.75;5070079;28;20056;-67
2021/05/16 09:27:48;;;;;;;13.15;3.10;;;;;;;18.64;45.15;98948.38;5072072;28;20055;-67
2021/05/16 09:30:30;;;;;;;9.65;2.67;;;;;;;18.65;43.27;98953.63;5069158;28;20052;-67
2021/05/16 09:33:00;;;;;;;12.43;3.50;;;;;;;20.00;41.99;98936.44;5061288;28;20048;-67
2021/05/16 09:35:30;;;;;;;6.90;2.50;;;;;;;23.02;33.27;98938.75;5073251;28;20381;-67
2021/05/16 09:38:03;;;;;;;7.55;2.25;;;;;;;24.89;29.91;98934.31;5070608;28;20052;-68
2021/05/16 09:40:32;;;;;;;7.07;2.45;;;;;;;26.04;28.58;98936.56;5072644;28;20044;-68
2021/05/16 09:43:13;;;;;;;;;;;;;;;27.15;26.61;98938.41;5077782;28;20056;-68
2021/05/16 09:45:42;;;;;;;4.10;2.40;;;;;;;28.67;23.98;98951.19;5066205;28;19927;-69
2021/05/16 09:48:38;;;;;;;4.25;2.03;;;;;;;30.74;21.83;98933.97;5068060;28;20067;-68
2021/05/16 09:51:20;;;;;;;2.80;2.10;;;;;;;30.27;20.88;98932.69;5065983;28;20057;-68
2021/05/16 09:53:55;;;;;;;3.85;1.25;;;;;;;29.76;21.72;98922.91;5065867;28;20059;-67
2021/05/16 09:56:24;;;;;;;3.10;1.40;;;;;;;27.26;25.13;98923.78;5067701;28;20048;-67
2021/05/16 09:58:54;;;;;;;;;;;;;;;25.63;27.05;98927.66;5075564;28;20064;-67
2021/05/16 10:01:22;;;;;;;3.47;1.25;;;;;;;24.83;28.97;98927.56;5070824;28;19928;-67
2021/05/16 10:03:53;;;;;;;3.60;1.42;;;;;;;25.90;27.05;98926.44;5068623;28;20053;-67
2021/05/16 10:06:22;;;;;;;5.35;2.20;;;;;;;25.66;27.29;98905.97;5072691;28;20060;-66
2021/05/16 10:08:49;;;;;;;4.90;1.60;;;;;;;27.59;25.06;98920.44;5064741;28;20048;-66
2021/05/16 10:11:18;;;;;;;3.50;2.00;;;;;;;26.71;25.93;98904.09;5061790;28;20553;-66
2021/05/16 10:13:52;;;;;;;2.67;0.95;;;;;;;26.51;24.96;98898.69;5065477;28;20052;-64
2021/05/16 10:16:21;;;;;;;4.30;2.33;;;;;;;28.32;22.36;98908.47;5064624;28;20052;-66
2021/05/16 10:18:50;;;;;;;4.53;2.23;;;;;;;30.28;19.52;98896.91;5057044;28;20497;-65
2021/05/16 10:21:17;;;;;;;4.03;2.13;;;;;;;30.23;19.29;98892.66;5072106;28;20048;-65
2021/05/16 10:23:44;;;;;;;3.97;2.17;;;;;;;31.52;18.93;98905.97;5070764;28;20045;-65
2021/05/16 10:26:16;;;;;;;3.92;1.80;;;;;;;31.95;17.78;98888.31;5072647;28;20055;-65
2021/05/16 10:28:54;;;;;;;3.10;1.95;;;;;;;32.46;17.16;98901.34;5072978;28;20059;-65
2021/05/16 10:31:47;;;;;;;3.95;2.00;;;;;;;32.04;18.11;98888.19;5073024;28;20057;-65
2021/05/16 10:34:40;;;;;;;4.28;2.30;;;;;;;33.67;16.09;98885.66;5069010;28;20051;-65
2021/05/16 10:37:09;;;;;;;4.00;1.30;;;;;;;32.44;16.77;98897.38;5072629;28;20052;-65
2021/05/16 10:39:50;;;;;;;3.85;1.50;;;;;;;30.37;19.71;98888.28;5073008;28;20048;-65
2021/05/16 10:42:19;;;;;;;5.15;1.65;;;;;;;31.16;18.72;98884.09;5072644;28;20048;-65
2021/05/16 10:44:59;;;;;;;3.85;2.38;;;;;;;30.83;18.99;98884.25;5072842;28;20059;-65
2021/05/16 10:48:02;;;;;;;3.15;1.40;;;;;;;31.90;17.30;98883.28;5069622;28;20063;-65
2021/05/16 10:50:38;;;;;;;5.57;1.70;;;;;;;30.75;18.91;98881.75;5067310;28;20052;-65
2021/05/16 10:53:07;;;;;;;8.02;1.75;;;;;;;28.35;22.10;98907.53;5066376;28;20056;-65
2021/05/16 10:55:37;;;;;;;4.78;1.33;;;;;;;26.48;27.11;98914.69;5073346;28;20052;-65
2021/05/16 10:58:04;;;;;;;;;;;;;;;24.44;31.75;98912.31;5072902;28;20071;-65
2021/05/16 11:00:33;;;;;;;5.18;2.00;;;;;;;23.26;37.51;98901.72;5072796;28;20277;-65
2021/05/16 11:03:03;;;;;;;4.68;1.58;;;;;;;22.57;35.48;98899.44;5068492;28;20510;-66
2021/05/16 11:05:54;;;;;;;3.75;1.70;;;;;;;22.05;35.92;98899.97;5071666;28;20044;-66
2021/05/16 11:09:04;;;;;;;5.15;3.20;;;;;;;22.51;36.87;98898.38;5072465;28;20389;-65
2021/05/16 11:11:34;;;;;;;5.70;2.28;;;;;;;25.20;30.38;98891.06;5053226;28;20498;-65
2021/05/16 11:14:01;;;;;;;4.20;2.55;;;;;;;27.17;28.01;98893.00;5065220;28;20044;-65
2021/05/16 11:16:28;;;;;;;3.45;2.05;;;;;;;29.34;22.74;98880.59;5071198;28;20056;-64
2021/05/16 11:18:55;;;;;;;4.30;2.03;;;;;;;30.27;20.71;98881.78;5071552;28;20056;-64
2021/05/16 11:21:25;;;;;;;4.93;2.55;;;;;;;31.69;19.58;98879.53;5072614;28;20055;-65
2021/05/16 11:23:52;;;;;;;5.07;2.08;;;;;;;32.72;17.58;98872.63;5065385;28;20482;-66
2021/05/16 11:26:22;;;;;;;2.42;1.70;;;;;;;33.06;17.08;98884.50;5053015;28;20045;-65
2021/05/16 11:28:57;;;;;;;2.92;1.40;;;;;;;31.00;18.93;98865.25;5052147;28;20044;-65
2021/05/16 11:31:25;;;;;;;2.50;1.90;;;;;;;32.02;18.06;98872.72;5052252;28;20053;-65
2021/05/16 11:33:54;;;;;;;2.78;1.75;;;;;;;32.51;17.62;98868.94;5062184;28;20056;-66
2021/05/16 11:36:23;;;;;;;1.95;1.17;;;;;;;33.46;16.62;98862.63;5067440;28;20049;-66
2021/05/16 11:38:53;;;;;;;3.25;2.13;;;;;;;32.91;17.05;98860.75;5071557;28;20052;-65
2021/05/16 11:41:35;;;;;;;2.30;1.23;;;;;;;32.03;18.23;98868.56;5071991;28;20056;-66
2021/05/16 11:44:04;;;;;;;2.83;1.15;;;;;;;31.61;18.70;98863.97;5055242;28;20052;-65
2021/05/16 11:46:38;;;;;;;2.30;1.00;;;;;;;31.08;19.58;98843.44;5070445;28;20060;-66
2021/05/16 11:49:06;;;;;;;2.38;1.15;;;;;;;30.92;19.66;98841.84;5069048;28;20053;-65
2021/05/16 11:51:33;;;;;;;2.30;1.70;;;;;;;33.61;16.94;98838.63;5071647;28;20056;-66
2021/05/16 11:54:03;;;;;;;3.55;2.20;;;;;;;33.99;16.42;98831.50;5072410;28;20060;-66
2021/05/16 11:56:36;;;;;;;3.63;1.67;;;;;;;34.02;16.15;98830.47;5070845;28;20045;-66
2021/05/16 11:59:04;;;;;;;2.80;1.80;;;;;;;35.40;15.51;98829.06;5069144;28;20057;-67
2021/05/16 12:01:34;;;;;;;;;;;;;;;36.00;14.95;98816.38;5069307;28;20063;-66
2021/05/16 12:04:04;;;;;;;3.90;1.17;;;;;;;36.16;13.89;98827.94;5067489;28;19920;-66
2021/05/16 12:06:33;;;;;;;2.70;1.20;;;;;;;33.16;16.39;98827.47;5068405;28;20048;-65
2021/05/16 12:09:06;;;;;;;3.10;1.20;;;;;;;31.25;19.47;98829.34;5072019;28;20095;-66
2021/05/16 12:11:34;;;;;;;3.05;1.88;;;;;;;30.64;20.06;98828.97;5071289;28;20371;-65
2021/05/16 12:14:08;;;;;;;3.88;2.05;;;;;;;33.04;17.84;98826.53;5069917;28;20048;-65
2021/05/16 12:16:38;;;;;;;3.53;1.75;;;;;;;34.11;15.38;98810.03;5063798;28;20079;-66
2021/05/16 12:19:06;;;;;;;3.22;1.77;;;;;;;35.21;15.72;98808.53;5070235;28;20067;-66
2021/05/16 12:21:35;;;;;;;4.60;1.77;;;;;;;34.68;14.51;98810.28;5067483;28;20049;-66
2021/05/16 12:24:06;;;;;;;3.00;0.93;;;;;;;33.94;15.42;98806.25;5064098;28;20052;-67
2021/05/16 12:26:35;;;;;;;4.13;2.38;;;;;;;33.34;15.02;98806.09;5070220;28;20436;-66
2021/05/16 12:29:03;;;;;;;3.70;2.20;;;;;;;33.09;15.26;98801.94;5070171;28;20397;-66
2021/05/16 12:31:31;;;;;;;2.95;1.80;;;;;;;32.73;15.47;98810.75;5071069;28;20056;-66